createdAt,value
2023-05-05T00:00:38.395Z,2690.00
2023-05-05T00:01:38.403Z,2685.00
2023-05-05T00:02:38.546Z,2603.00
2023-05-05T00:03:38.441Z,2550.00
2023-05-05T00:04:38.357Z,2506.00
2023-05-05T00:05:38.329Z,2465.00
2023-05-05T00:06:38.308Z,2435.00
2023-05-05T00:07:38.305Z,2420.00
2023-05-05T00:08:38.286Z,2413.00
2023-05-05T00:09:38.270Z,2435.00
2023-05-05T00:10:38.287Z,2346.00
2023-05-05T00:11:38.259Z,2288.00
2023-05-05T00:12:38.289Z,2267.00
2023-05-05T00:13:38.245Z,2298.00
2023-05-05T00:14:38.228Z,2313.00
2023-05-05T00:15:38.261Z,2344.00
2023-05-05T00:16:38.264Z,2369.00
2023-05-05T00:17:38.255Z,2403.00
2023-05-05T00:18:38.183Z,2388.00
2023-05-05T00:19:38.204Z,2384.00
2023-05-05T00:20:38.188Z,2398.00
2023-05-05T00:21:38.152Z,2413.00
2023-05-05T00:22:38.195Z,2429.00
2023-05-05T00:23:38.189Z,2455.00
2023-05-05T00:24:38.174Z,2470.00
2023-05-05T00:25:38.185Z,2496.00
2023-05-05T00:26:38.211Z,2533.00
2023-05-05T00:27:40.230Z,2512.00
2023-05-05T00:28:38.144Z,2519.00
2023-05-05T00:29:38.117Z,2525.00
2023-05-05T00:30:38.114Z,2536.00
2023-05-05T00:31:38.122Z,2531.00
2023-05-05T00:32:38.052Z,2535.00
2023-05-05T00:33:37.970Z,2544.00
2023-05-05T00:34:37.941Z,2562.00
2023-05-05T00:35:37.922Z,2551.00
2023-05-05T00:36:37.864Z,2565.00
2023-05-05T00:37:37.820Z,2571.00
2023-05-05T00:38:37.779Z,2569.00
2023-05-05T00:39:37.716Z,2578.00
2023-05-05T00:40:37.716Z,2534.00
2023-05-05T00:41:37.688Z,2502.00
2023-05-05T00:42:37.661Z,2475.00
2023-05-05T00:43:38.557Z,2443.00
2023-05-05T00:44:37.554Z,2459.00
2023-05-05T00:45:37.549Z,2461.00
2023-05-05T00:46:37.577Z,2462.00
2023-05-05T00:47:37.504Z,2477.00
2023-05-05T00:48:37.435Z,2499.00
2023-05-05T00:49:37.409Z,2497.00
2023-05-05T00:50:37.375Z,2512.00
2023-05-05T00:51:37.329Z,2528.00
2023-05-05T00:52:37.291Z,2527.00
2023-05-05T00:53:37.236Z,2488.00
2023-05-05T00:54:37.225Z,2495.00
2023-05-05T00:55:37.172Z,2506.00
2023-05-05T00:56:37.126Z,2509.00
2023-05-05T00:57:37.079Z,2528.00
2023-05-05T00:58:37.050Z,2510.00
2023-05-05T00:59:37.030Z,2544.00
2023-05-05T01:00:36.973Z,2571.00
2023-05-05T01:01:36.929Z,2599.00
2023-05-05T01:02:36.959Z,2584.00
2023-05-05T01:03:36.918Z,2595.00
2023-05-05T01:04:36.810Z,2595.00
2023-05-05T01:05:36.792Z,2608.00
2023-05-05T01:06:36.758Z,2616.00
2023-05-05T01:07:36.684Z,2624.00
2023-05-05T01:08:36.649Z,2647.00
2023-05-05T01:09:36.592Z,2657.00
2023-05-05T01:10:36.569Z,2654.00
2023-05-05T01:11:36.564Z,2625.00
2023-05-05T01:12:36.509Z,2540.00
2023-05-05T01:13:36.465Z,2507.00
2023-05-05T01:14:36.407Z,2474.00
2023-05-05T01:15:36.388Z,2439.00
2023-05-05T01:16:36.438Z,2414.00
2023-05-05T01:17:36.332Z,2389.00
2023-05-05T01:18:36.291Z,2380.00
2023-05-05T01:19:36.238Z,2369.00
2023-05-05T01:20:36.247Z,2383.00
2023-05-05T01:21:36.219Z,2420.00
2023-05-05T01:22:36.163Z,2404.00
2023-05-05T01:23:36.138Z,2390.00
2023-05-05T01:24:36.102Z,2374.00
2023-05-05T01:25:36.051Z,2388.00
2023-05-05T01:26:35.983Z,2418.00
2023-05-05T01:27:35.972Z,2423.00
2023-05-05T01:28:35.909Z,2456.00
2023-05-05T01:29:35.872Z,2464.00
2023-05-05T01:30:35.859Z,2478.00
2023-05-05T01:31:35.881Z,2487.00
2023-05-05T01:32:35.855Z,2510.00
2023-05-05T01:33:35.734Z,2524.00
2023-05-05T01:34:35.711Z,2524.00
2023-05-05T01:35:35.668Z,2534.00
2023-05-05T01:36:35.615Z,2544.00
2023-05-05T01:37:35.585Z,2559.00
2023-05-05T01:38:35.562Z,2566.00
2023-05-05T01:39:35.538Z,2574.00
2023-05-05T01:40:35.485Z,2583.00
2023-05-05T01:41:35.453Z,2583.00
2023-05-05T01:42:35.415Z,2591.00
2023-05-05T01:43:35.383Z,2600.00
2023-05-05T01:44:35.342Z,2604.00
2023-05-05T01:45:35.318Z,2594.00
2023-05-05T01:46:35.237Z,2614.00
2023-05-05T01:47:35.227Z,2629.00
2023-05-05T01:48:35.196Z,2637.00
2023-05-05T01:49:35.151Z,2642.00
2023-05-05T01:50:35.101Z,2665.00
2023-05-05T01:51:35.092Z,2678.00
2023-05-05T01:52:35.071Z,2695.00
2023-05-05T01:53:35.046Z,2696.00
2023-05-05T01:54:35.066Z,2697.00
2023-05-05T01:55:35.017Z,2691.00
2023-05-05T01:56:35.038Z,2699.00
2023-05-05T01:57:35.012Z,2686.00
2023-05-05T01:58:34.991Z,2699.00
2023-05-05T01:59:35.025Z,2700.00
2023-05-05T02:00:34.997Z,2737.00
2023-05-05T02:01:35.034Z,2721.00
2023-05-05T02:02:35.030Z,2727.00
2023-05-05T02:03:35.018Z,2732.00
2023-05-05T02:04:34.956Z,2739.00
2023-05-05T02:05:34.965Z,2737.00
2023-05-05T02:06:34.925Z,2732.00
2023-05-05T02:07:34.924Z,2745.00
2023-05-05T02:08:34.885Z,2755.00
2023-05-05T02:09:34.894Z,2751.00
2023-05-05T02:10:34.854Z,2757.00
2023-05-05T02:11:34.858Z,2745.00
2023-05-05T02:12:34.860Z,2739.00
2023-05-05T02:13:34.931Z,2730.00
2023-05-05T02:14:34.816Z,2733.00
2023-05-05T02:15:34.852Z,2746.00
2023-05-05T02:16:34.805Z,2733.00
2023-05-05T02:17:34.831Z,2744.00
2023-05-05T02:18:34.772Z,2761.00
2023-05-05T02:19:34.818Z,2774.00
2023-05-05T02:20:34.793Z,2790.00
2023-05-05T02:21:34.840Z,2796.00
2023-05-05T02:22:34.762Z,2801.00
2023-05-05T02:23:34.786Z,2803.00
2023-05-05T02:24:34.777Z,2796.00
2023-05-05T02:25:34.757Z,2808.00
2023-05-05T02:26:34.789Z,2815.00
2023-05-05T02:27:34.789Z,2807.00
2023-05-05T02:28:34.738Z,2800.00
2023-05-05T02:29:35.612Z,2804.00
2023-05-05T02:30:34.729Z,2808.00
2023-05-05T02:31:34.757Z,2799.00
2023-05-05T02:32:34.782Z,2808.00
2023-05-05T02:33:34.696Z,2813.00
2023-05-05T02:34:34.706Z,2832.00
2023-05-05T02:35:34.691Z,2834.00
2023-05-05T02:36:34.709Z,2838.00
2023-05-05T02:37:34.747Z,2846.00
2023-05-05T02:38:34.722Z,2825.00
2023-05-05T02:39:34.712Z,2822.00
2023-05-05T02:40:34.701Z,2795.00
2023-05-05T02:41:34.762Z,2803.00
2023-05-05T02:42:34.669Z,2798.00
2023-05-05T02:43:34.687Z,2778.00
2023-05-05T02:44:34.806Z,2747.00
2023-05-05T02:45:34.669Z,2724.00
2023-05-05T02:46:34.723Z,2697.00
2023-05-05T02:47:34.679Z,2670.00
2023-05-05T02:48:34.661Z,2658.00
2023-05-05T02:49:34.620Z,2643.00
2023-05-05T02:50:34.631Z,2626.00
2023-05-05T02:51:34.615Z,2629.00
2023-05-05T02:52:34.587Z,2620.00
2023-05-05T02:53:34.601Z,2612.00
2023-05-05T02:54:34.602Z,2621.00
2023-05-05T02:55:34.615Z,2635.00
2023-05-05T02:56:34.592Z,2645.00
2023-05-05T02:57:34.576Z,2644.00
2023-05-05T02:58:34.619Z,2636.00
2023-05-05T02:59:34.596Z,2667.00
2023-05-05T03:00:34.623Z,2684.00
2023-05-05T03:01:34.634Z,2667.00
2023-05-05T03:02:34.624Z,2642.00
2023-05-05T03:03:34.660Z,2644.00
2023-05-05T03:04:34.561Z,2655.00
2023-05-05T03:05:34.555Z,2641.00
2023-05-05T03:06:34.582Z,2646.00
2023-05-05T03:07:34.532Z,2633.00
2023-05-05T03:08:34.538Z,2630.00
2023-05-05T03:09:34.547Z,2637.00
2023-05-05T03:10:34.558Z,2636.00
2023-05-05T03:11:34.557Z,2654.00
2023-05-05T03:12:34.543Z,2673.00
2023-05-05T03:13:34.545Z,2715.00
2023-05-05T03:14:34.516Z,2720.00
2023-05-05T03:15:34.522Z,2747.00
2023-05-05T03:16:34.569Z,2755.00
2023-05-05T03:17:34.557Z,2775.00
2023-05-05T03:18:34.518Z,2793.00
2023-05-05T03:19:34.513Z,2814.00
2023-05-05T03:20:34.527Z,2802.00
2023-05-05T03:21:34.526Z,2796.00
2023-05-05T03:22:34.460Z,2795.00
2023-05-05T03:23:34.448Z,2800.00
2023-05-05T03:24:34.492Z,2805.00
2023-05-05T03:25:34.441Z,2782.00
2023-05-05T03:26:34.508Z,2790.00
2023-05-05T03:27:34.507Z,2784.00
2023-05-05T03:28:34.469Z,2786.00
2023-05-05T03:29:34.492Z,2820.00
2023-05-05T03:30:34.485Z,2817.00
2023-05-05T03:31:34.563Z,2818.00
2023-05-05T03:32:34.596Z,2811.00
2023-05-05T03:33:34.508Z,2813.00
2023-05-05T03:34:34.582Z,2801.00
2023-05-05T03:35:34.534Z,2790.00
2023-05-05T03:36:34.516Z,2801.00
2023-05-05T03:37:34.514Z,2817.00
2023-05-05T03:38:34.536Z,2808.00
2023-05-05T03:39:34.533Z,2819.00
2023-05-05T03:40:43.601Z,2819.00
2023-05-05T03:41:35.472Z,2820.00
2023-05-05T03:42:34.445Z,2827.00
2023-05-05T03:43:34.395Z,2839.00
2023-05-05T03:44:34.333Z,2851.00
2023-05-05T03:45:34.323Z,2863.00
2023-05-05T03:46:34.227Z,2829.00
2023-05-05T03:47:34.251Z,2816.00
2023-05-05T03:48:34.205Z,2787.00
2023-05-05T03:49:34.119Z,2784.00
2023-05-05T03:50:34.109Z,2775.00
2023-05-05T03:51:34.066Z,2764.00
2023-05-05T03:52:34.022Z,2746.00
2023-05-05T03:53:33.952Z,2738.00
2023-05-05T03:54:33.965Z,2727.00
2023-05-05T03:55:33.898Z,2700.00
2023-05-05T03:56:33.868Z,2687.00
2023-05-05T03:57:33.855Z,2692.00
2023-05-05T03:58:33.828Z,2679.00
2023-05-05T03:59:33.791Z,2673.00
2023-05-05T04:00:33.790Z,2691.00
2023-05-05T04:01:33.773Z,2699.00
2023-05-05T04:02:33.810Z,2706.00
2023-05-05T04:03:33.851Z,2728.00
2023-05-05T04:04:33.779Z,2749.00
2023-05-05T04:05:33.701Z,2745.00
2023-05-05T04:06:33.697Z,2721.00
2023-05-05T04:07:33.711Z,2708.00
2023-05-05T04:08:33.676Z,2680.00
2023-05-05T04:09:33.693Z,2683.00
2023-05-05T04:10:33.682Z,2694.00
2023-05-05T04:11:33.667Z,2705.00
2023-05-05T04:12:33.675Z,2697.00
2023-05-05T04:13:33.614Z,2692.00
2023-05-05T04:14:33.582Z,2684.00
2023-05-05T04:15:33.558Z,2661.00
2023-05-05T04:16:33.579Z,2641.00
2023-05-05T04:17:33.565Z,2642.00
2023-05-05T04:18:33.520Z,2659.00
2023-05-05T04:19:33.506Z,2675.00
2023-05-05T04:20:33.473Z,2686.00
2023-05-05T04:21:33.483Z,2695.00
2023-05-05T04:22:33.498Z,2703.00
2023-05-05T04:23:33.502Z,2706.00
2023-05-05T04:24:33.469Z,2725.00
2023-05-05T04:25:33.457Z,2731.00
2023-05-05T04:26:33.473Z,2745.00
2023-05-05T04:27:33.417Z,2756.00
2023-05-05T04:28:33.424Z,2743.00
2023-05-05T04:29:33.401Z,2737.00
2023-05-05T04:30:33.423Z,2726.00
2023-05-05T04:31:33.447Z,2719.00
2023-05-05T04:32:33.428Z,2737.00
2023-05-05T04:33:33.399Z,2757.00
2023-05-05T04:34:33.484Z,2763.00
2023-05-05T04:35:33.430Z,2766.00
2023-05-05T04:36:33.440Z,2777.00
2023-05-05T04:37:33.435Z,2760.00
2023-05-05T04:38:33.546Z,2770.00
2023-05-05T04:39:33.490Z,2769.00
2023-05-05T04:40:33.559Z,2766.00
2023-05-05T04:41:33.450Z,2772.00
2023-05-05T04:42:33.515Z,2768.00
2023-05-05T04:43:33.508Z,2778.00
2023-05-05T04:44:33.470Z,2773.00
2023-05-05T04:45:33.459Z,2779.00
2023-05-05T04:46:33.604Z,2774.00
2023-05-05T04:47:33.549Z,2786.00
2023-05-05T04:48:33.554Z,2790.00
2023-05-05T04:49:33.601Z,2791.00
2023-05-05T04:50:33.573Z,2789.00
2023-05-05T04:51:33.582Z,2794.00
2023-05-05T04:52:33.603Z,2791.00
2023-05-05T04:53:33.586Z,2809.00
2023-05-05T04:54:33.626Z,2798.00
2023-05-05T04:55:33.673Z,2815.00
2023-05-05T04:56:33.684Z,2826.00
2023-05-05T04:57:33.683Z,2823.00
2023-05-05T04:58:33.706Z,2821.00
2023-05-05T04:59:33.691Z,2811.00
2023-05-05T05:00:33.661Z,2812.00
2023-05-05T05:01:40.732Z,2819.00
2023-05-05T05:02:33.827Z,2821.00
2023-05-05T05:03:33.877Z,2827.00
2023-05-05T05:04:33.608Z,2829.00
2023-05-05T05:05:33.585Z,2827.00
2023-05-05T05:06:33.508Z,2812.00
2023-05-05T05:07:33.488Z,2808.00
2023-05-05T05:08:33.461Z,2812.00
2023-05-05T05:09:33.395Z,2809.00
2023-05-05T05:10:33.370Z,2814.00
2023-05-05T05:11:33.342Z,2796.00
2023-05-05T05:12:33.368Z,2795.00
2023-05-05T05:13:33.238Z,2787.00
2023-05-05T05:14:33.240Z,2786.00
2023-05-05T05:15:33.167Z,2784.00
2023-05-05T05:16:33.175Z,2798.00
2023-05-05T05:17:33.158Z,2786.00
2023-05-05T05:18:33.068Z,2784.00
2023-05-05T05:19:33.035Z,2787.00
2023-05-05T05:20:33.005Z,2782.00
2023-05-05T05:21:33.076Z,2788.00
2023-05-05T05:22:33.040Z,2783.00
2023-05-05T05:23:32.996Z,2785.00
2023-05-05T05:24:32.871Z,2785.00
2023-05-05T05:25:32.839Z,2787.00
2023-05-05T05:26:32.786Z,2787.00
2023-05-05T05:27:32.704Z,2795.00
2023-05-05T05:28:32.648Z,2799.00
2023-05-05T05:29:32.643Z,2796.00
2023-05-05T05:30:32.614Z,2792.00
2023-05-05T05:31:32.578Z,2803.00
2023-05-05T05:32:32.751Z,2800.00
2023-05-05T05:33:32.448Z,2801.00
2023-05-05T05:34:33.174Z,2787.00
2023-05-05T05:35:32.373Z,2805.00
2023-05-05T05:36:32.472Z,2880.00
2023-05-05T05:37:32.437Z,3021.00
2023-05-05T05:38:32.327Z,3145.00
2023-05-05T05:39:32.249Z,3197.00
2023-05-05T05:40:32.221Z,3230.00
2023-05-05T05:41:32.117Z,3255.00
2023-05-05T05:42:32.123Z,3279.00
2023-05-05T05:43:32.078Z,3285.00
2023-05-05T05:44:32.037Z,3303.00
2023-05-05T05:45:38.995Z,3305.00
2023-05-05T05:46:32.016Z,3306.00
2023-05-05T05:47:32.259Z,3303.00
2023-05-05T05:48:31.882Z,3258.00
2023-05-05T05:49:31.855Z,3238.00
2023-05-05T05:50:31.859Z,3257.00
2023-05-05T05:51:31.756Z,3275.00
2023-05-05T05:52:31.808Z,3291.00
2023-05-05T05:53:31.697Z,3303.00
2023-05-05T05:54:31.633Z,3304.00
2023-05-05T05:55:31.622Z,3323.00
2023-05-05T05:56:31.592Z,3340.00
2023-05-05T05:57:31.518Z,3371.00
2023-05-05T05:58:31.509Z,3371.00
2023-05-05T05:59:31.439Z,3397.00
2023-05-05T06:00:31.377Z,3404.00
2023-05-05T06:01:31.368Z,3397.00
2023-05-05T06:02:31.461Z,3404.00
2023-05-05T06:03:31.352Z,3410.00
2023-05-05T06:04:31.270Z,3400.00
2023-05-05T06:05:31.180Z,3396.00
2023-05-05T06:06:31.142Z,3400.00
2023-05-05T06:07:31.088Z,3424.00
2023-05-05T06:08:31.050Z,3410.00
2023-05-05T06:09:31.008Z,3410.00
2023-05-05T06:10:31.132Z,3421.00
2023-05-05T06:11:30.899Z,3399.00
2023-05-05T06:12:30.960Z,3368.00
2023-05-05T06:13:30.818Z,3352.00
2023-05-05T06:14:30.806Z,3325.00
2023-05-05T06:15:30.763Z,3318.00
2023-05-05T06:16:30.801Z,3301.00
2023-05-05T06:17:30.700Z,3283.00
2023-05-05T06:18:30.677Z,3268.00
2023-05-05T06:19:30.672Z,3269.00
2023-05-05T06:20:30.661Z,3241.00
2023-05-05T06:21:30.649Z,3218.00
2023-05-05T06:22:30.633Z,3211.00
2023-05-05T06:23:30.646Z,3191.00
2023-05-05T06:24:30.663Z,3163.00
2023-05-05T06:25:30.658Z,3157.00
2023-05-05T06:26:30.653Z,3149.00
2023-05-05T06:27:30.664Z,3144.00
2023-05-05T06:28:30.612Z,3152.00
2023-05-05T06:29:30.634Z,3147.00
2023-05-05T06:30:30.624Z,3088.00
2023-05-05T06:31:30.700Z,3081.00
2023-05-05T06:32:30.676Z,3098.00
2023-05-05T06:33:30.624Z,3105.00
2023-05-05T06:34:30.624Z,3133.00
2023-05-05T06:35:30.659Z,3136.00
2023-05-05T06:36:30.692Z,3156.00
2023-05-05T06:37:30.677Z,3152.00
2023-05-05T06:38:30.660Z,3113.00
2023-05-05T06:39:30.686Z,3057.00
2023-05-05T06:40:30.711Z,2985.00
2023-05-05T06:41:30.734Z,2959.00
2023-05-05T06:42:30.731Z,2907.00
2023-05-05T06:43:30.722Z,2869.00
2023-05-05T06:44:30.806Z,2854.00
2023-05-05T06:45:30.770Z,2833.00
2023-05-05T06:46:30.812Z,2829.00
2023-05-05T06:47:31.271Z,2793.00
2023-05-05T06:48:30.781Z,2738.00
2023-05-05T06:49:30.864Z,2689.00
2023-05-05T06:50:30.892Z,2663.00
2023-05-05T06:51:30.762Z,2639.00
2023-05-05T06:52:30.786Z,2626.00
2023-05-05T06:53:30.848Z,2616.00
2023-05-05T06:54:30.771Z,2556.00
2023-05-05T06:55:30.786Z,2483.00
2023-05-05T06:56:30.805Z,2441.00
2023-05-05T06:57:31.289Z,2407.00
2023-05-05T06:58:30.816Z,2383.00
2023-05-05T06:59:31.728Z,2379.00
2023-05-05T07:00:30.840Z,2334.00
2023-05-05T07:01:30.777Z,2333.00
2023-05-05T07:02:30.846Z,2297.00
2023-05-05T07:03:31.696Z,2269.00
2023-05-05T07:04:30.771Z,2159.00
2023-05-05T07:05:31.775Z,2109.00
2023-05-05T07:06:30.816Z,2054.00
2023-05-05T07:07:30.718Z,1989.00
2023-05-05T07:08:30.726Z,1908.00
2023-05-05T07:09:30.709Z,1880.00
2023-05-05T07:10:30.724Z,1829.00
2023-05-05T07:11:30.771Z,1770.00
2023-05-05T07:12:30.752Z,1743.00
2023-05-05T07:13:30.733Z,1702.00
2023-05-05T07:14:30.696Z,1647.00
2023-05-05T07:15:30.632Z,1571.00
2023-05-05T07:16:30.722Z,1502.00
2023-05-05T07:17:30.583Z,1482.00
2023-05-05T07:18:30.696Z,1490.00
2023-05-05T07:19:30.634Z,1464.00
2023-05-05T07:20:30.609Z,1381.00
2023-05-05T07:21:30.552Z,1338.00
2023-05-05T07:22:30.572Z,1273.00
2023-05-05T07:23:30.576Z,1215.00
2023-05-05T07:24:30.586Z,1188.00
2023-05-05T07:25:30.606Z,1160.00
2023-05-05T07:26:30.552Z,1136.00
2023-05-05T07:27:30.515Z,1126.00
2023-05-05T07:28:30.764Z,1117.00
2023-05-05T07:29:30.514Z,1056.00
2023-05-05T07:30:30.446Z,1217.00
2023-05-05T07:31:30.439Z,1502.00
2023-05-05T07:32:30.438Z,1650.00
2023-05-05T07:33:30.471Z,1730.00
2023-05-05T07:34:30.423Z,1775.00
2023-05-05T07:35:30.427Z,1915.00
2023-05-05T07:36:30.379Z,2131.00
2023-05-05T07:37:30.439Z,2243.00
2023-05-05T07:38:30.440Z,2101.00
2023-05-05T07:39:30.464Z,2151.00
2023-05-05T07:40:30.406Z,2334.00
2023-05-05T07:41:30.475Z,2323.00
2023-05-05T07:42:30.491Z,2419.00
2023-05-05T07:43:30.790Z,2459.00
2023-05-05T07:44:30.538Z,2478.00
2023-05-05T07:45:30.648Z,2592.00
2023-05-05T07:46:30.552Z,2527.00
2023-05-05T07:47:30.645Z,2442.00
2023-05-05T07:48:30.511Z,2355.00
2023-05-05T07:49:30.528Z,2266.00
2023-05-05T07:50:30.471Z,2271.00
2023-05-05T07:51:31.154Z,2347.00
2023-05-05T07:52:44.134Z,2373.00
2023-05-05T07:53:31.359Z,2357.00
2023-05-05T07:54:30.300Z,2422.00
2023-05-05T07:55:30.256Z,2452.00
2023-05-05T07:56:30.207Z,2425.00
2023-05-05T07:57:30.175Z,2370.00
2023-05-05T07:58:30.186Z,2190.00
2023-05-05T07:59:30.120Z,2097.00
2023-05-05T08:00:30.107Z,1926.00
2023-05-05T08:01:30.133Z,1896.00
2023-05-05T08:02:30.098Z,1671.00
2023-05-05T08:03:30.162Z,1455.00
2023-05-05T08:04:30.059Z,1251.00
2023-05-05T08:05:30.076Z,1076.00
2023-05-05T08:06:30.040Z,918.00
2023-05-05T08:07:30.083Z,799.00
2023-05-05T08:08:30.035Z,722.00
2023-05-05T08:09:30.077Z,651.00
2023-05-05T08:10:30.095Z,633.00
2023-05-05T08:11:30.169Z,626.00
2023-05-05T08:12:30.243Z,574.00
2023-05-05T08:13:30.169Z,589.00
2023-05-05T08:14:30.171Z,581.00
2023-05-05T08:15:30.267Z,597.00
2023-05-05T08:16:30.319Z,575.00
2023-05-05T08:17:30.341Z,570.00
2023-05-05T08:18:30.266Z,528.00
2023-05-05T08:19:30.324Z,500.00
2023-05-05T08:20:30.298Z,501.00
2023-05-05T08:21:30.327Z,501.00
2023-05-05T08:22:30.320Z,500.00
2023-05-05T08:23:30.358Z,490.00
2023-05-05T08:24:30.512Z,494.00
2023-05-05T08:25:30.390Z,498.00
2023-05-05T08:26:30.420Z,497.00
2023-05-05T08:27:30.420Z,506.00
2023-05-05T08:28:30.421Z,506.00
2023-05-05T08:29:30.431Z,500.00
2023-05-05T08:30:30.450Z,499.00
2023-05-05T08:31:30.503Z,500.00
2023-05-05T08:32:30.476Z,500.00
2023-05-05T08:33:30.837Z,499.00
2023-05-05T08:34:30.524Z,502.00
2023-05-05T08:35:30.538Z,507.00
2023-05-05T08:36:30.491Z,521.00
2023-05-05T08:37:30.552Z,532.00
2023-05-05T08:38:30.556Z,498.00
2023-05-05T08:39:30.583Z,500.00
2023-05-05T08:40:30.574Z,503.00
2023-05-05T08:41:30.586Z,505.00
2023-05-05T08:42:37.839Z,501.00
2023-05-05T08:43:31.575Z,501.00
2023-05-05T08:44:30.537Z,482.00
2023-05-05T08:45:30.507Z,461.00
2023-05-05T08:46:30.563Z,477.00
2023-05-05T08:47:30.635Z,491.00
2023-05-05T08:48:30.748Z,531.00
2023-05-05T08:49:30.453Z,532.00
2023-05-05T08:50:30.389Z,526.00
2023-05-05T08:51:30.340Z,545.00
2023-05-05T08:52:30.345Z,567.00
2023-05-05T08:53:30.318Z,787.00
2023-05-05T08:54:30.256Z,1016.00
2023-05-05T08:55:30.220Z,1412.00
2023-05-05T08:56:30.287Z,1355.00
2023-05-05T08:57:30.271Z,1464.00
2023-05-05T08:58:30.274Z,2114.00
2023-05-05T08:59:30.211Z,2330.00
2023-05-05T09:00:30.248Z,2677.00
2023-05-05T09:01:30.262Z,2725.00
2023-05-05T09:02:30.331Z,2439.00
2023-05-05T09:03:30.350Z,2330.00
2023-05-05T09:04:30.282Z,2636.00
2023-05-05T09:05:30.353Z,2747.00
2023-05-05T09:06:30.263Z,2865.00
2023-05-05T09:07:30.290Z,3043.00
2023-05-05T09:08:30.763Z,3120.00
2023-05-05T09:09:30.305Z,2690.00
2023-05-05T09:10:30.318Z,2941.00
2023-05-05T09:11:30.322Z,2990.00
2023-05-05T09:12:30.387Z,3167.00
2023-05-05T09:13:30.385Z,3228.00
2023-05-05T09:14:30.355Z,3234.00
2023-05-05T09:15:30.486Z,3243.00
2023-05-05T09:16:30.390Z,3161.00
2023-05-05T09:17:30.409Z,2792.00
2023-05-05T09:18:30.420Z,2931.00
2023-05-05T09:19:30.427Z,2782.00
2023-05-05T09:20:30.376Z,2942.00
2023-05-05T09:21:30.442Z,3014.00
2023-05-05T09:22:30.449Z,3063.00
2023-05-05T09:23:30.420Z,3098.00
2023-05-05T09:24:30.389Z,3151.00
2023-05-05T09:25:30.410Z,3183.00
2023-05-05T09:26:30.419Z,3253.00
2023-05-05T09:27:30.415Z,3270.00
2023-05-05T09:28:30.806Z,3243.00
2023-05-05T09:29:30.351Z,3204.00
2023-05-05T09:30:30.402Z,3204.00
2023-05-05T09:31:30.393Z,3271.00
2023-05-05T09:32:30.632Z,2989.00
2023-05-05T09:33:30.376Z,3044.00
2023-05-05T09:34:30.452Z,2844.00
2023-05-05T09:35:30.363Z,2856.00
2023-05-05T09:36:30.332Z,2893.00
2023-05-05T09:37:30.371Z,2948.00
2023-05-05T09:38:30.292Z,2983.00
2023-05-05T09:39:30.254Z,2918.00
2023-05-05T09:40:30.219Z,2923.00
2023-05-05T09:41:30.225Z,3048.00
2023-05-05T09:42:30.239Z,3283.00
2023-05-05T09:43:30.309Z,3295.00
2023-05-05T09:44:30.191Z,3331.00
2023-05-05T09:45:30.144Z,3223.00
2023-05-05T09:46:30.143Z,3142.00
2023-05-05T09:47:30.487Z,3213.00
2023-05-05T09:48:30.078Z,3324.00
2023-05-05T09:49:30.034Z,3410.00
2023-05-05T09:50:29.977Z,3488.00
2023-05-05T09:51:29.968Z,3585.00
2023-05-05T09:52:29.979Z,3572.00
2023-05-05T09:53:30.426Z,3554.00
2023-05-05T09:54:29.896Z,3540.00
2023-05-05T09:55:29.902Z,3464.00
2023-05-05T09:56:29.865Z,3455.00
2023-05-05T09:57:29.823Z,3525.00
2023-05-05T09:58:30.036Z,3632.00
2023-05-05T09:59:29.790Z,3741.00
2023-05-05T10:00:29.676Z,3831.00
2023-05-05T10:01:29.730Z,3936.00
2023-05-05T10:02:29.688Z,3977.00
2023-05-05T10:03:29.611Z,3965.00
2023-05-05T10:04:29.569Z,3950.00
2023-05-05T10:05:29.543Z,3962.00
2023-05-05T10:06:29.457Z,3835.00
2023-05-05T10:07:29.453Z,3802.00
2023-05-05T10:08:29.399Z,3864.00
2023-05-05T10:09:29.435Z,3921.00
2023-05-05T10:10:29.371Z,3908.00
2023-05-05T10:11:29.322Z,3929.00
2023-05-05T10:12:29.278Z,3976.00
2023-05-05T10:13:29.312Z,3978.00
2023-05-05T10:14:29.322Z,3856.00
2023-05-05T10:15:29.381Z,3824.00
2023-05-05T10:16:29.297Z,3766.00
2023-05-05T10:17:29.224Z,3757.00
2023-05-05T10:18:29.249Z,3783.00
2023-05-05T10:19:29.200Z,3802.00
2023-05-05T10:20:29.172Z,3819.00
2023-05-05T10:21:29.195Z,3826.00
2023-05-05T10:22:29.119Z,3771.00
2023-05-05T10:23:29.081Z,3771.00
2023-05-05T10:24:29.074Z,3742.00
2023-05-05T10:25:29.061Z,3710.00
2023-05-05T10:26:29.067Z,3728.00
2023-05-05T10:27:29.092Z,3722.00
2023-05-05T10:28:28.992Z,3647.00
2023-05-05T10:29:29.353Z,3607.00
2023-05-05T10:30:28.971Z,3579.00
2023-05-05T10:31:28.947Z,3521.00
2023-05-05T10:32:53.615Z,3430.00
2023-05-05T10:33:32.127Z,3396.00
2023-05-05T10:34:28.891Z,3430.00
2023-05-05T10:35:28.774Z,3433.00
2023-05-05T10:36:28.812Z,3382.00
2023-05-05T10:37:28.719Z,3343.00
2023-05-05T10:38:28.667Z,3341.00
2023-05-05T10:39:28.626Z,3321.00
2023-05-05T10:40:28.580Z,3426.00
2023-05-05T10:41:28.549Z,3337.00
2023-05-05T10:42:28.498Z,3232.00
2023-05-05T10:43:28.416Z,3180.00
2023-05-05T10:44:28.405Z,3123.00
2023-05-05T10:45:28.451Z,3063.00
2023-05-05T10:46:28.289Z,2903.00
2023-05-05T10:47:28.236Z,2922.00
2023-05-05T10:48:28.258Z,2940.00
2023-05-05T10:49:28.185Z,3012.00
2023-05-05T10:50:28.098Z,2957.00
2023-05-05T10:51:39.449Z,2930.00
2023-05-05T10:52:29.031Z,2932.00
2023-05-05T10:53:27.946Z,2935.00
2023-05-05T10:54:27.931Z,2930.00
2023-05-05T10:55:27.881Z,2918.00
2023-05-05T10:56:27.863Z,2972.00
2023-05-05T10:57:27.825Z,3046.00
2023-05-05T10:58:27.735Z,3080.00
2023-05-05T10:59:27.644Z,2990.00
2023-05-05T11:00:27.590Z,2922.00
2023-05-05T11:01:27.655Z,2894.00
2023-05-05T11:02:27.554Z,2956.00
2023-05-05T11:03:27.648Z,2905.00
2023-05-05T11:04:27.441Z,2723.00
2023-05-05T11:05:27.323Z,2729.00
2023-05-05T11:06:27.317Z,2769.00
2023-05-05T11:07:27.227Z,2821.00
2023-05-05T11:08:27.238Z,2637.00
2023-05-05T11:09:27.228Z,2600.00
2023-05-05T11:10:27.207Z,2721.00
2023-05-05T11:11:27.217Z,2676.00
2023-05-05T11:12:27.187Z,2588.00
2023-05-05T11:13:27.245Z,2527.00
2023-05-05T11:14:27.135Z,2520.00
2023-05-05T11:15:27.170Z,2603.00
2023-05-05T11:16:27.118Z,2652.00
2023-05-05T11:17:27.100Z,2616.00
2023-05-05T11:18:27.017Z,2676.00
2023-05-05T11:19:27.073Z,2699.00
2023-05-05T11:20:27.525Z,2700.00
2023-05-05T11:21:26.978Z,2713.00
2023-05-05T11:22:26.980Z,2748.00
2023-05-05T11:23:26.999Z,2586.00
2023-05-05T11:24:26.943Z,2526.00
2023-05-05T11:25:26.926Z,2377.00
2023-05-05T11:26:26.930Z,2457.00
2023-05-05T11:27:26.915Z,2331.00
2023-05-05T11:28:26.911Z,2295.00
2023-05-05T11:29:26.921Z,2238.00
2023-05-05T11:30:26.846Z,2148.00
2023-05-05T11:31:26.861Z,2028.00
2023-05-05T11:32:26.874Z,1911.00
2023-05-05T11:33:26.747Z,2041.00
2023-05-05T11:34:26.978Z,2023.00
2023-05-05T11:35:26.685Z,2029.00
2023-05-05T11:36:26.708Z,2063.00
2023-05-05T11:37:26.661Z,2192.00
2023-05-05T11:38:26.688Z,2257.00
2023-05-05T11:39:26.902Z,2116.00
2023-05-05T11:40:26.603Z,1977.00
2023-05-05T11:41:26.532Z,1933.00
2023-05-05T11:42:26.532Z,1810.00
2023-05-05T11:43:26.502Z,1800.00
2023-05-05T11:44:26.488Z,1737.00
2023-05-05T11:45:26.519Z,1753.00
2023-05-05T11:46:26.466Z,1847.00
2023-05-05T11:47:26.482Z,1822.00
2023-05-05T11:48:26.372Z,1908.00
2023-05-05T11:49:26.339Z,1956.00
2023-05-05T11:50:26.308Z,1584.00
2023-05-05T11:51:26.315Z,1502.00
2023-05-05T11:52:26.273Z,1523.00
2023-05-05T11:53:26.283Z,1571.00
2023-05-05T11:54:26.292Z,1548.00
2023-05-05T11:55:26.218Z,1578.00
2023-05-05T11:56:26.188Z,1579.00
2023-05-05T11:57:26.181Z,1471.00
2023-05-05T11:58:26.131Z,1534.00
2023-05-05T11:59:26.117Z,1589.00
2023-05-05T12:00:26.059Z,1405.00
2023-05-05T12:01:26.120Z,1320.00
2023-05-05T12:02:26.087Z,1346.00
2023-05-05T12:03:26.148Z,1342.00
2023-05-05T12:04:26.004Z,1312.00
2023-05-05T12:05:25.964Z,1266.00
2023-05-05T12:06:25.904Z,1120.00
2023-05-05T12:07:25.843Z,1091.00